• Join FlightAware (Why Join?)
  • Login
  • US Flag 
02:45AM EDT


 

Airport Tracker/Info


-or-


 

Live Flight TrackerFlight Track Log ✈ EJA951 ✈ 15-Jul-2013 ✈ KMLI - KSSI

Flight Track Log - Related Links

Times and Time Zones

All times are in EDT time to prevent confusion due to time zone crossing. See the EJA951 flight status page for this flight to view local times or setup timezone preferences in your user account.

Time Position Orientation Groundspeed Altitude Reporting Facility
EDT Latitude Longitude Course Direction KTS MPH feet Rate Location/Type
12:54PM 41.4361 -90.4458 157° South 194 223 4,000  Level Kansas City Center
12:55PM 41.3750 -90.4119 157° South 261 300 7,200 3,420 Climbing Kansas City Center
12:56PM 41.3003 -90.3767 160° South 280 322 11,000 2,760 Climbing Chicago Center
12:57PM 41.2139 -90.3347 160° South 326 375 12,700 1,620 Climbing Chicago Center
12:58PM 41.1203 -90.2897 160° South 353 406 14,400 1,440 Climbing Chicago Center
12:59PM 41.0261 -90.2431 159° South 360 414 15,700 1,320 Climbing Chicago Center
01:00PM 40.9186 -90.1911 160° South 367 422 17,200 1,200 Climbing Chicago Center
01:01PM 40.8222 -90.1447 160° South 371 427 18,200 1,020 Climbing Chicago Center
01:02PM 40.7031 -90.0878 160° South 382 440 19,400 1,140 Climbing Chicago Center
01:03PM 40.6019 -90.0389 160° South 389 448 20,600 960 Climbing Chicago Center
01:04PM 40.4989 -89.9897 160° South 397 457 21,500 960 Climbing Chicago Center
01:05PM 40.3878 -89.9367 160° South 402 463 22,700 1,080 Climbing Chicago Center
01:06PM 40.2811 -89.8858 160° South 407 468 23,800 960 Climbing Chicago Center
01:07PM 40.1731 -89.8344 160° South 414 476 24,800 960 Climbing Chicago Center
01:09PM 40.0617 -89.7822 160° South 423 487 25,800 1,020 Climbing Chicago Center
01:10PM 39.9261 -89.7178 160° South 430 495 27,000 960 Climbing Kansas City Center
01:11PM 39.8147 -89.6519 156° South 440 506 27,900 900 Climbing Kansas City Center
01:12PM 39.7186 -89.5533 142° Southeast 441 507 28,900 960 Climbing Kansas City Center
01:13PM 39.6103 -89.4403 141° Southeast 447 514 30,000 960 Climbing Kansas City Center
01:14PM 39.5106 -89.3369 141° Southeast 454 522 31,000 1,260 Climbing Kansas City Center
01:15PM 39.4106 -89.2356 142° Southeast 456 525 32,600 1,500 Climbing Kansas City Center
01:16PM 39.3128 -89.1350 141° Southeast 451 519 34,200 1,500 Climbing Kansas City Center
01:17PM 39.2136 -89.0350 142° Southeast 451 519 35,800 1,620 Climbing Kansas City Center
01:18PM 39.1161 -88.9361 142° Southeast 447 514 37,600 1,440 Climbing Kansas City Center
01:19PM 39.0000 -88.8167 141° Southeast 444 511 38,900 660 Climbing Kansas City Center
01:20PM 38.8972 -88.7119 142° Southeast 462 532 39,000  Climbing Kansas City Center
01:21PM 38.7753 -88.5914 142° Southeast 487 560 39,000 420 Level Kansas City Center
01:22PM 38.6656 -88.4814 142° Southeast 497 572 39,900 900 Climbing Kansas City Center
01:23PM 38.5664 -88.3653 138° Southeast 491 565 40,900 480 Climbing Kansas City Center
01:24PM 38.4694 -88.2478 136° Southeast 484 557 41,000  Climbing Kansas City Center
01:25PM 38.3681 -88.1303 138° Southeast 489 563 41,000  Level Kansas City Center
01:26PM 38.2661 -88.0108 137° Southeast 495 570 41,000  Level Kansas City Center
01:27PM 38.1650 -87.8936 138° Southeast 494 568 41,000  Level Kansas City Center
01:28PM 38.0456 -87.7522 137° Southeast 492 566 41,000  Level Kansas City Center
01:29PM 37.9453 -87.6381 138° Southeast 491 565 41,000 -240 Level Indianapolis Center
01:30PM 37.8456 -87.5222 137° Southeast 491 565 40,500  Descending Indianapolis Center
01:31PM 37.7278 -87.3844 137° Southeast 489 563 41,000 240 Climbing Indianapolis Center
01:32PM 37.6236 -87.2678 138° Southeast 494 568 41,000  Level Indianapolis Center
01:33PM 37.5225 -87.1494 137° Southeast 492 566 41,000  Level Indianapolis Center
01:34PM 37.4194 -87.0367 139° Southeast 489 563 41,000  Level Indianapolis Center
01:35PM 37.3169 -86.9203 138° Southeast 491 565 41,000  Level Indianapolis Center
01:37PM 37.2150 -86.8039 138° Southeast 490 564 41,000  Level Indianapolis Center
01:38PM 37.1122 -86.6875 138° Southeast 492 566 41,000  Level Indianapolis Center
01:39PM 37.0103 -86.5725 138° Southeast 488 562 41,000  Level Indianapolis Center
01:39PM 36.9189 -86.4697 138° Southeast 485 558 41,000  Level Memphis Center
01:40PM 36.8172 -86.3556 138° Southeast 485 558 41,000  Level Memphis Center
01:41PM 36.7156 -86.2414 138° Southeast 491 565 41,000  Level Memphis Center
01:42PM 36.6139 -86.1278 138° Southeast 491 565 41,000  Level Memphis Center
01:43PM 36.5100 -86.0194 140° Southeast 491 565 41,000  Level Memphis Center
01:44PM 36.4169 -85.9189 139° Southeast 497 572 41,000  Level Memphis Center
01:45PM 36.3039 -85.7961 139° Southeast 497 572 41,000  Level Memphis Center
01:47PM 36.1028 -85.5781 139° Southeast 477 549 41,000  Level Atlanta Center
01:48PM 36.0000 -85.4658 139° Southeast 482 555 41,000  Level Atlanta Center
01:49PM 35.8947 -85.3536 139° Southeast 488 562 41,000  Level Atlanta Center
01:50PM 35.7917 -85.2444 139° Southeast 488 562 41,000  Level Atlanta Center
01:51PM 35.6883 -85.1356 139° Southeast 493 567 41,000  Level Atlanta Center
01:52PM 35.5828 -85.0244 139° Southeast 498 573 41,000  Level Atlanta Center
01:53PM 35.4814 -84.9136 138° Southeast 493 567 41,000  Level Atlanta Center
01:54PM 35.3675 -84.7928 139° Southeast 493 567 41,000  Level Atlanta Center
01:55PM 35.2639 -84.6822 139° Southeast 493 567 41,000  Level Atlanta Center
01:56PM 35.1581 -84.5747 140° Southeast 493 567 41,000  Level Atlanta Center
01:57PM 35.0542 -84.4650 139° Southeast 493 567 41,000  Level Atlanta Center
01:58PM 34.9481 -84.3556 140° Southeast 493 567 41,000  Level Atlanta Center
01:59PM 34.8583 -84.2564 138° Southeast 493 567 41,000  Level Atlanta Center
02:00PM 34.7417 -84.1372 140° Southeast 493 567 41,000  Level Atlanta Center
02:01PM 34.6500 -84.0361 138° Southeast 493 567 41,000  Level Atlanta Center
02:02PM 34.5350 -83.9178 140° Southeast 493 567 41,000  Level Atlanta Center
02:03PM 34.4306 -83.8122 140° Southeast 488 562 41,000  Level Atlanta Center
02:04PM 34.3261 -83.7067 140° Southeast 488 562 41,000  Level Atlanta Center
02:05PM 34.2214 -83.5992 140° Southeast 493 567 41,000  Level Atlanta Center
02:06PM 34.1167 -83.4944 140° Southeast 493 567 41,000  Level Atlanta Center
02:07PM 34.0097 -83.3897 141° Southeast 493 567 41,000  Level Atlanta Center
02:08PM 33.8983 -83.2881 143° Southeast 498 573 41,000  Level Atlanta Center
02:09PM 33.7894 -83.2114 150° Southeast 498 573 41,000 -480 Level Atlanta Center
02:10PM 33.6739 -83.1278 149° Southeast 498 573 40,100 -900 Descending Atlanta Center
02:11PM 33.5564 -83.0417 149° Southeast 498 573 39,200 -660 Descending Atlanta Center
02:12PM 33.4367 -82.9608 151° Southeast 493 567 38,800 -900 Descending Atlanta Center
02:13PM 33.3044 -82.8731 151° Southeast 493 567 37,500 -1,200 Descending Atlanta Center
02:14PM 33.1953 -82.7975 150° Southeast 499 574 36,400 -1,200 Descending Atlanta Center
02:15PM 33.0753 -82.7100 149° Southeast 499 574 35,200 -1,500 Descending Atlanta Center
02:16PM 32.9575 -82.6228 148° Southeast 499 574 33,400 -2,040 Descending Atlanta Center
02:17PM 32.8375 -82.5431 151° Southeast 499 574 31,200 -1,740 Descending Atlanta Center
02:20PM 32.5892 -82.3697 150° Southeast 481 554 28,000 -1,080 Descending Jacksonville Center
02:21PM 32.4867 -82.2992 150° Southeast 449 517 28,000 -600 Level Jacksonville Center
02:22PM 32.3839 -82.2308 151° Southeast 419 482 26,800 -2,040 Descending Jacksonville Center
02:23PM 32.2894 -82.1381 140° Southeast 429 494 24,000 -1,440 Descending Jacksonville Center
02:24PM 32.2219 -82.0306 127° Southeast 422 486 24,000 -660 Level Jacksonville Center
02:25PM 32.1483 -81.9406 134° Southeast 389 448 22,700 -2,400 Descending Jacksonville Center
02:26PM 32.0539 -81.8803 152° Southeast 412 474 19,200 -2,400 Descending Jacksonville Center
02:27PM 31.9322 -81.8106 154° Southeast 440 506 18,000 -600 Descending Jacksonville Center
02:28PM 31.8231 -81.7531 156° South 440 506 18,000  Level Jacksonville Center
02:29PM 31.7308 -81.7031 155° Southeast 425 489 18,000  Level Jacksonville Center
02:30PM 31.6175 -81.6411 155° Southeast 414 476 18,000 -300 Level Jacksonville Center
02:31PM 31.5272 -81.5911 155° Southeast 403 464 17,500 -1,440 Descending Jacksonville Center
02:32PM 31.4328 -81.5414 156° South 357 411 15,200 -1,980 Descending Jacksonville Center
02:33PM 31.3614 -81.5033 156° South 290 334 13,600 -2,100 Descending Jacksonville Center
02:34PM 31.3025 -81.4750 158° South 236 272 11,000 -2,520 Descending Jacksonville Center
02:35PM 31.2522 -81.4467 154° Southeast 207 238 8,600 -2,400 Descending Jacksonville Center